sensor_id;sensor_type;location;lat;lon;timestamp;temperature;humidity
48936;DHT22;34745;52.276;10.528;2023-01-25T00:02:00;2.00;99.90
48936;DHT22;34745;52.276;10.528;2023-01-25T00:04:28;1.90;99.90
48936;DHT22;34745;52.276;10.528;2023-01-25T00:06:55;1.80;99.90
48936;DHT22;34745;52.276;10.528;2023-01-25T00:09:23;1.90;99.90
48936;DHT22;34745;52.276;10.528;2023-01-25T00:11:52;1.90;99.90
48936;DHT22;34745;52.276;10.528;2023-01-25T00:14:22;1.90;99.90
48936;DHT22;34745;52.276;10.528;2023-01-25T00:16:49;1.90;99.90
48936;DHT22;34745;52.276;10.528;2023-01-25T00:19:17;1.80;99.90
48936;DHT22;34745;52.276;10.528;2023-01-25T00:21:44;1.90;99.90
48936;DHT22;34745;52.276;10.528;2023-01-25T00:24:11;1.90;99.90
48936;DHT22;34745;52.276;10.528;2023-01-25T00:26:41;1.90;99.90
48936;DHT22;34745;52.276;10.528;2023-01-25T00:29:13;1.90;99.90
48936;DHT22;34745;52.276;10.528;2023-01-25T00:31:49;1.90;99.90
48936;DHT22;34745;52.276;10.528;2023-01-25T00:34:37;1.90;99.90
48936;DHT22;34745;52.276;10.528;2023-01-25T00:37:19;1.80;99.90
48936;DHT22;34745;52.276;10.528;2023-01-25T00:39:49;1.80;99.90
48936;DHT22;34745;52.276;10.528;2023-01-25T00:42:17;1.90;99.90
48936;DHT22;34745;52.276;10.528;2023-01-25T00:44:47;1.90;99.90
48936;DHT22;34745;52.276;10.528;2023-01-25T00:47:15;1.90;99.90
48936;DHT22;34745;52.276;10.528;2023-01-25T00:49:43;1.90;99.90
48936;DHT22;34745;52.276;10.528;2023-01-25T00:52:11;1.90;99.90
48936;DHT22;34745;52.276;10.528;2023-01-25T00:54:39;2.00;99.90
48936;DHT22;34745;52.276;10.528;2023-01-25T00:57:06;2.00;99.90
48936;DHT22;34745;52.276;10.528;2023-01-25T00:59:34;1.90;99.90
48936;DHT22;34745;52.276;10.528;2023-01-25T01:02:03;1.90;99.90
48936;DHT22;34745;52.276;10.528;2023-01-25T01:04:30;1.90;99.90
48936;DHT22;34745;52.276;10.528;2023-01-25T01:06:58;1.90;99.90
48936;DHT22;34745;52.276;10.528;2023-01-25T01:09:25;1.90;99.90
48936;DHT22;34745;52.276;10.528;2023-01-25T01:11:52;1.90;99.90
48936;DHT22;34745;52.276;10.528;2023-01-25T01:14:20;1.90;99.90
48936;DHT22;34745;52.276;10.528;2023-01-25T01:16:47;1.90;99.90
48936;DHT22;34745;52.276;10.528;2023-01-25T01:19:16;1.90;99.90
48936;DHT22;34745;52.276;10.528;2023-01-25T01:21:43;1.90;99.90
48936;DHT22;34745;52.276;10.528;2023-01-25T01:24:10;1.90;99.90
48936;DHT22;34745;52.276;10.528;2023-01-25T01:26:37;1.90;99.90
48936;DHT22;34745;52.276;10.528;2023-01-25T01:29:04;1.90;99.90
48936;DHT22;34745;52.276;10.528;2023-01-25T01:31:31;1.90;99.90
48936;DHT22;34745;52.276;10.528;2023-01-25T01:33:59;1.90;99.90
48936;DHT22;34745;52.276;10.528;2023-01-25T01:36:29;1.80;99.90
48936;DHT22;34745;52.276;10.528;2023-01-25T01:38:57;1.80;99.90
48936;DHT22;34745;52.276;10.528;2023-01-25T01:41:25;1.70;99.90
48936;DHT22;34745;52.276;10.528;2023-01-25T01:43:52;1.70;99.90
48936;DHT22;34745;52.276;10.528;2023-01-25T01:46:24;1.60;99.90
48936;DHT22;34745;52.276;10.528;2023-01-25T01:48:57;1.60;99.90
48936;DHT22;34745;52.276;10.528;2023-01-25T01:51:35;1.50;99.90
48936;DHT22;34745;52.276;10.528;2023-01-25T01:54:08;1.60;99.90
48936;DHT22;34745;52.276;10.528;2023-01-25T01:56:40;1.60;99.90
48936;DHT22;34745;52.276;10.528;2023-01-25T01:59:09;1.50;99.90
48936;DHT22;34745;52.276;10.528;2023-01-25T02:01:36;1.60;99.90
48936;DHT22;34745;52.276;10.528;2023-01-25T02:04:05;1.50;99.90
48936;DHT22;34745;52.276;10.528;2023-01-25T02:06:38;1.50;99.90
48936;DHT22;34745;52.276;10.528;2023-01-25T02:09:07;1.60;99.90
48936;DHT22;34745;52.276;10.528;2023-01-25T02:11:35;1.60;99.90
48936;DHT22;34745;52.276;10.528;2023-01-25T02:14:03;1.60;99.90
48936;DHT22;34745;52.276;10.528;2023-01-25T02:16:30;1.60;99.90
48936;DHT22;34745;52.276;10.528;2023-01-25T02:18:58;1.50;99.90
48936;DHT22;34745;52.276;10.528;2023-01-25T02:21:34;1.50;99.90
48936;DHT22;34745;52.276;10.528;2023-01-25T02:24:08;1.50;99.90
48936;DHT22;34745;52.276;10.528;2023-01-25T02:26:38;1.60;99.90
48936;DHT22;34745;52.276;10.528;2023-01-25T02:29:07;1.60;99.90
48936;DHT22;34745;52.276;10.528;2023-01-25T02:31:35;1.60;99.90
48936;DHT22;34745;52.276;10.528;2023-01-25T02:34:02;1.60;99.90
48936;DHT22;34745;52.276;10.528;2023-01-25T02:36:31;1.60;99.90
48936;DHT22;34745;52.276;10.528;2023-01-25T02:39:01;1.60;99.90
48936;DHT22;34745;52.276;10.528;2023-01-25T02:41:33;1.70;99.90
48936;DHT22;34745;52.276;10.528;2023-01-25T02:44:05;1.60;99.90
48936;DHT22;34745;52.276;10.528;2023-01-25T02:46:35;1.60;99.90
48936;DHT22;34745;52.276;10.528;2023-01-25T02:49:04;1.60;99.90
48936;DHT22;34745;52.276;10.528;2023-01-25T02:51:34;1.50;99.90
48936;DHT22;34745;52.276;10.528;2023-01-25T02:54:03;1.50;99.90
48936;DHT22;34745;52.276;10.528;2023-01-25T02:56:30;1.40;99.90
48936;DHT22;34745;52.276;10.528;2023-01-25T02:58:58;1.50;99.90
48936;DHT22;34745;52.276;10.528;2023-01-25T03:01:26;1.50;99.90
48936;DHT22;34745;52.276;10.528;2023-01-25T03:03:54;1.40;99.90
48936;DHT22;34745;52.276;10.528;2023-01-25T03:06:20;1.20;99.90
48936;DHT22;34745;52.276;10.528;2023-01-25T03:08:49;1.20;99.90
48936;DHT22;34745;52.276;10.528;2023-01-25T03:11:16;1.30;99.90
48936;DHT22;34745;52.276;10.528;2023-01-25T03:13:43;1.30;99.90
48936;DHT22;34745;52.276;10.528;2023-01-25T03:16:11;1.20;99.90
48936;DHT22;34745;52.276;10.528;2023-01-25T03:18:40;1.20;99.90
48936;DHT22;34745;52.276;10.528;2023-01-25T03:21:10;1.20;99.90
48936;DHT22;34745;52.276;10.528;2023-01-25T03:23:37;1.10;99.90
48936;DHT22;34745;52.276;10.528;2023-01-25T03:26:06;1.00;99.90
48936;DHT22;34745;52.276;10.528;2023-01-25T03:28:33;1.10;99.90
48936;DHT22;34745;52.276;10.528;2023-01-25T03:31:00;1.10;99.90
48936;DHT22;34745;52.276;10.528;2023-01-25T03:33:27;1.20;99.90
48936;DHT22;34745;52.276;10.528;2023-01-25T03:35:56;1.20;99.90
48936;DHT22;34745;52.276;10.528;2023-01-25T03:38:24;1.20;99.90
48936;DHT22;34745;52.276;10.528;2023-01-25T03:40:51;1.20;99.90
48936;DHT22;34745;52.276;10.528;2023-01-25T03:43:19;1.10;99.90
48936;DHT22;34745;52.276;10.528;2023-01-25T03:45:50;1.10;99.90
48936;DHT22;34745;52.276;10.528;2023-01-25T03:48:18;1.10;99.90
48936;DHT22;34745;52.276;10.528;2023-01-25T03:50:48;1.00;99.90
48936;DHT22;34745;52.276;10.528;2023-01-25T03:53:17;1.00;99.90
48936;DHT22;34745;52.276;10.528;2023-01-25T03:55:57;1.00;99.90
48936;DHT22;34745;52.276;10.528;2023-01-25T03:58:24;1.00;99.90
48936;DHT22;34745;52.276;10.528;2023-01-25T04:00:54;1.20;99.90
48936;DHT22;34745;52.276;10.528;2023-01-25T04:03:21;1.20;99.90
48936;DHT22;34745;52.276;10.528;2023-01-25T04:05:48;1.20;99.90
48936;DHT22;34745;52.276;10.528;2023-01-25T04:08:18;1.20;99.90
48936;DHT22;34745;52.276;10.528;2023-01-25T04:10:49;1.20;99.90
48936;DHT22;34745;52.276;10.528;2023-01-25T04:13:18;1.20;99.90
48936;DHT22;34745;52.276;10.528;2023-01-25T04:15:45;1.20;99.90
48936;DHT22;34745;52.276;10.528;2023-01-25T04:18:12;1.20;99.90
48936;DHT22;34745;52.276;10.528;2023-01-25T04:20:40;1.30;99.90
48936;DHT22;34745;52.276;10.528;2023-01-25T04:23:09;1.30;99.90
48936;DHT22;34745;52.276;10.528;2023-01-25T04:25:37;1.30;99.90
48936;DHT22;34745;52.276;10.528;2023-01-25T04:28:05;1.40;99.90
48936;DHT22;34745;52.276;10.528;2023-01-25T04:30:32;1.40;99.90
48936;DHT22;34745;52.276;10.528;2023-01-25T04:33:02;1.30;99.90
48936;DHT22;34745;52.276;10.528;2023-01-25T04:35:29;1.30;99.90
48936;DHT22;34745;52.276;10.528;2023-01-25T04:37:57;1.40;99.90
48936;DHT22;34745;52.276;10.528;2023-01-25T04:40:25;1.30;99.90
48936;DHT22;34745;52.276;10.528;2023-01-25T04:42:53;1.20;99.90
48936;DHT22;34745;52.276;10.528;2023-01-25T04:45:20;1.20;99.90
48936;DHT22;34745;52.276;10.528;2023-01-25T04:47:48;1.10;99.90
48936;DHT22;34745;52.276;10.528;2023-01-25T04:50:15;1.20;99.90
48936;DHT22;34745;52.276;10.528;2023-01-25T04:52:43;1.20;99.90
48936;DHT22;34745;52.276;10.528;2023-01-25T04:55:10;1.20;99.90
48936;DHT22;34745;52.276;10.528;2023-01-25T04:57:38;1.10;99.90
48936;DHT22;34745;52.276;10.528;2023-01-25T05:00:08;1.00;99.90
48936;DHT22;34745;52.276;10.528;2023-01-25T05:02:35;0.90;99.90
48936;DHT22;34745;52.276;10.528;2023-01-25T05:05:03;0.80;99.90
48936;DHT22;34745;52.276;10.528;2023-01-25T05:07:30;0.90;99.90
48936;DHT22;34745;52.276;10.528;2023-01-25T05:09:57;0.90;99.90
48936;DHT22;34745;52.276;10.528;2023-01-25T05:12:24;1.00;99.90
48936;DHT22;34745;52.276;10.528;2023-01-25T05:14:51;0.90;99.90
48936;DHT22;34745;52.276;10.528;2023-01-25T05:17:20;1.00;99.90
48936;DHT22;34745;52.276;10.528;2023-01-25T05:19:47;1.00;99.90
48936;DHT22;34745;52.276;10.528;2023-01-25T05:22:15;1.10;99.90
48936;DHT22;34745;52.276;10.528;2023-01-25T05:24:43;1.10;99.90
48936;DHT22;34745;52.276;10.528;2023-01-25T05:27:12;1.10;99.90
48936;DHT22;34745;52.276;10.528;2023-01-25T05:29:41;1.00;99.90
48936;DHT22;34745;52.276;10.528;2023-01-25T05:32:09;0.90;99.90
48936;DHT22;34745;52.276;10.528;2023-01-25T05:34:38;1.00;99.90
48936;DHT22;34745;52.276;10.528;2023-01-25T05:37:07;1.00;99.90
48936;DHT22;34745;52.276;10.528;2023-01-25T05:39:34;1.00;99.90
48936;DHT22;34745;52.276;10.528;2023-01-25T05:42:01;1.00;99.90
48936;DHT22;34745;52.276;10.528;2023-01-25T05:44:28;1.00;99.90
48936;DHT22;34745;52.276;10.528;2023-01-25T05:46:55;1.00;99.90
48936;DHT22;34745;52.276;10.528;2023-01-25T05:49:22;1.00;99.90
48936;DHT22;34745;52.276;10.528;2023-01-25T05:51:51;0.90;99.90
48936;DHT22;34745;52.276;10.528;2023-01-25T05:54:18;1.00;99.90
48936;DHT22;34745;52.276;10.528;2023-01-25T05:56:48;0.90;99.90
48936;DHT22;34745;52.276;10.528;2023-01-25T05:59:16;0.90;99.90
48936;DHT22;34745;52.276;10.528;2023-01-25T06:01:43;0.90;99.90
48936;DHT22;34745;52.276;10.528;2023-01-25T06:04:12;0.90;99.90
48936;DHT22;34745;52.276;10.528;2023-01-25T06:06:39;0.80;99.90
48936;DHT22;34745;52.276;10.528;2023-01-25T06:09:09;0.80;99.90
48936;DHT22;34745;52.276;10.528;2023-01-25T06:11:37;0.70;99.90
48936;DHT22;34745;52.276;10.528;2023-01-25T06:14:04;0.70;99.90
48936;DHT22;34745;52.276;10.528;2023-01-25T06:16:31;0.80;99.90
48936;DHT22;34745;52.276;10.528;2023-01-25T06:18:58;0.80;99.90
48936;DHT22;34745;52.276;10.528;2023-01-25T06:21:25;0.80;99.90
48936;DHT22;34745;52.276;10.528;2023-01-25T06:23:53;0.80;99.90
48936;DHT22;34745;52.276;10.528;2023-01-25T06:26:22;0.90;99.90
48936;DHT22;34745;52.276;10.528;2023-01-25T06:28:49;1.00;99.90
48936;DHT22;34745;52.276;10.528;2023-01-25T06:31:18;1.00;99.90
48936;DHT22;34745;52.276;10.528;2023-01-25T06:33:47;0.90;99.90
48936;DHT22;34745;52.276;10.528;2023-01-25T06:36:17;0.90;99.90
48936;DHT22;34745;52.276;10.528;2023-01-25T06:38:47;0.90;99.90
48936;DHT22;34745;52.276;10.528;2023-01-25T06:41:15;0.90;99.90
48936;DHT22;34745;52.276;10.528;2023-01-25T06:43:43;0.90;99.90
48936;DHT22;34745;52.276;10.528;2023-01-25T06:46:10;1.00;99.90
48936;DHT22;34745;52.276;10.528;2023-01-25T06:48:38;1.00;99.90
48936;DHT22;34745;52.276;10.528;2023-01-25T06:51:07;1.00;99.90
48936;DHT22;34745;52.276;10.528;2023-01-25T06:53:37;0.90;99.90
48936;DHT22;34745;52.276;10.528;2023-01-25T06:56:06;0.90;99.90
48936;DHT22;34745;52.276;10.528;2023-01-25T06:58:37;0.90;99.90
48936;DHT22;34745;52.276;10.528;2023-01-25T07:01:10;0.90;99.90
48936;DHT22;34745;52.276;10.528;2023-01-25T07:03:39;0.90;99.90
48936;DHT22;34745;52.276;10.528;2023-01-25T07:06:08;0.90;99.90
48936;DHT22;34745;52.276;10.528;2023-01-25T07:08:35;0.90;99.90
48936;DHT22;34745;52.276;10.528;2023-01-25T07:11:05;0.80;99.90
48936;DHT22;34745;52.276;10.528;2023-01-25T07:13:33;0.80;99.90
48936;DHT22;34745;52.276;10.528;2023-01-25T07:16:03;0.80;99.90
48936;DHT22;34745;52.276;10.528;2023-01-25T07:18:31;0.80;99.90
48936;DHT22;34745;52.276;10.528;2023-01-25T07:21:03;0.80;99.90
48936;DHT22;34745;52.276;10.528;2023-01-25T07:23:31;0.80;99.90
48936;DHT22;34745;52.276;10.528;2023-01-25T07:26:00;0.80;99.90
48936;DHT22;34745;52.276;10.528;2023-01-25T07:28:27;0.80;99.90
48936;DHT22;34745;52.276;10.528;2023-01-25T07:30:54;0.80;99.90
48936;DHT22;34745;52.276;10.528;2023-01-25T07:33:22;0.80;99.90
48936;DHT22;34745;52.276;10.528;2023-01-25T07:35:51;0.80;99.90
48936;DHT22;34745;52.276;10.528;2023-01-25T07:38:18;0.60;99.90
48936;DHT22;34745;52.276;10.528;2023-01-25T07:40:50;0.60;99.90
48936;DHT22;34745;52.276;10.528;2023-01-25T07:43:17;0.60;99.90
48936;DHT22;34745;52.276;10.528;2023-01-25T07:45:46;0.70;99.90
48936;DHT22;34745;52.276;10.528;2023-01-25T07:48:16;0.60;99.90
48936;DHT22;34745;52.276;10.528;2023-01-25T07:50:44;0.70;99.90
48936;DHT22;34745;52.276;10.528;2023-01-25T07:53:38;0.60;99.90
48936;DHT22;34745;52.276;10.528;2023-01-25T07:56:05;0.70;99.90
48936;DHT22;34745;52.276;10.528;2023-01-25T07:58:32;0.70;99.90
48936;DHT22;34745;52.276;10.528;2023-01-25T08:01:05;0.80;99.90
48936;DHT22;34745;52.276;10.528;2023-01-25T08:03:32;0.80;99.90
48936;DHT22;34745;52.276;10.528;2023-01-25T08:06:00;0.80;99.90
48936;DHT22;34745;52.276;10.528;2023-01-25T08:08:27;0.70;99.90
48936;DHT22;34745;52.276;10.528;2023-01-25T08:10:55;0.70;99.90
48936;DHT22;34745;52.276;10.528;2023-01-25T08:13:22;0.70;99.90
48936;DHT22;34745;52.276;10.528;2023-01-25T08:15:53;0.60;99.90
48936;DHT22;34745;52.276;10.528;2023-01-25T08:18:20;0.60;99.90
48936;DHT22;34745;52.276;10.528;2023-01-25T08:20:48;0.50;99.90
48936;DHT22;34745;52.276;10.528;2023-01-25T08:23:14;0.50;99.90
48936;DHT22;34745;52.276;10.528;2023-01-25T08:25:42;0.50;99.90
48936;DHT22;34745;52.276;10.528;2023-01-25T08:28:10;0.50;99.90
48936;DHT22;34745;52.276;10.528;2023-01-25T08:30:37;0.50;99.90
48936;DHT22;34745;52.276;10.528;2023-01-25T08:33:17;0.60;99.90
48936;DHT22;34745;52.276;10.528;2023-01-25T08:35:53;0.70;99.90
48936;DHT22;34745;52.276;10.528;2023-01-25T08:38:21;0.70;99.90
48936;DHT22;34745;52.276;10.528;2023-01-25T08:40:48;0.70;99.90
48936;DHT22;34745;52.276;10.528;2023-01-25T08:43:16;0.70;99.90
48936;DHT22;34745;52.276;10.528;2023-01-25T08:45:44;0.80;99.90
48936;DHT22;34745;52.276;10.528;2023-01-25T08:48:11;0.70;99.90
48936;DHT22;34745;52.276;10.528;2023-01-25T08:50:44;0.50;99.90
48936;DHT22;34745;52.276;10.528;2023-01-25T08:53:12;0.50;99.90
48936;DHT22;34745;52.276;10.528;2023-01-25T08:55:39;0.50;99.90
48936;DHT22;34745;52.276;10.528;2023-01-25T08:58:09;0.60;99.90
48936;DHT22;34745;52.276;10.528;2023-01-25T09:00:39;0.70;99.90
48936;DHT22;34745;52.276;10.528;2023-01-25T09:03:07;0.70;99.90
48936;DHT22;34745;52.276;10.528;2023-01-25T09:05:35;0.80;99.90
48936;DHT22;34745;52.276;10.528;2023-01-25T09:08:02;0.70;99.90
48936;DHT22;34745;52.276;10.528;2023-01-25T09:10:31;0.70;99.90
48936;DHT22;34745;52.276;10.528;2023-01-25T09:12:58;0.70;99.90
48936;DHT22;34745;52.276;10.528;2023-01-25T09:15:26;0.70;99.90
48936;DHT22;34745;52.276;10.528;2023-01-25T09:17:55;0.60;99.90
48936;DHT22;34745;52.276;10.528;2023-01-25T09:20:22;0.60;99.90
48936;DHT22;34745;52.276;10.528;2023-01-25T09:22:49;0.60;99.90
48936;DHT22;34745;52.276;10.528;2023-01-25T09:25:17;0.60;99.90
48936;DHT22;34745;52.276;10.528;2023-01-25T09:27:44;0.50;99.90
48936;DHT22;34745;52.276;10.528;2023-01-25T09:30:12;0.60;99.90
48936;DHT22;34745;52.276;10.528;2023-01-25T09:32:44;0.60;99.90
48936;DHT22;34745;52.276;10.528;2023-01-25T09:35:12;0.60;99.90
48936;DHT22;34745;52.276;10.528;2023-01-25T09:37:40;0.50;99.90
48936;DHT22;34745;52.276;10.528;2023-01-25T09:40:12;0.50;99.90
48936;DHT22;34745;52.276;10.528;2023-01-25T09:43:00;0.60;99.90
48936;DHT22;34745;52.276;10.528;2023-01-25T09:45:31;0.50;99.90
48936;DHT22;34745;52.276;10.528;2023-01-25T09:48:04;0.40;99.90
48936;DHT22;34745;52.276;10.528;2023-01-25T09:50:38;0.40;99.90
48936;DHT22;34745;52.276;10.528;2023-01-25T09:56:00;0.50;99.90
48936;DHT22;34745;52.276;10.528;2023-01-25T09:58:32;0.40;99.90
48936;DHT22;34745;52.276;10.528;2023-01-25T10:01:23;0.40;99.90
48936;DHT22;34745;52.276;10.528;2023-01-25T10:04:09;0.50;99.90
48936;DHT22;34745;52.276;10.528;2023-01-25T10:06:41;0.60;99.90
48936;DHT22;34745;52.276;10.528;2023-01-25T10:09:29;0.50;99.90
48936;DHT22;34745;52.276;10.528;2023-01-25T10:11:58;0.40;99.90
48936;DHT22;34745;52.276;10.528;2023-01-25T10:14:30;0.40;99.90
48936;DHT22;34745;52.276;10.528;2023-01-25T10:17:05;0.40;99.90
48936;DHT22;34745;52.276;10.528;2023-01-25T10:19:47;0.50;99.90
48936;DHT22;34745;52.276;10.528;2023-01-25T10:22:20;0.50;99.90
48936;DHT22;34745;52.276;10.528;2023-01-25T10:28:08;0.50;99.90
48936;DHT22;34745;52.276;10.528;2023-01-25T10:30:47;0.40;99.90
48936;DHT22;34745;52.276;10.528;2023-01-25T10:33:19;0.30;99.90
48936;DHT22;34745;52.276;10.528;2023-01-25T10:35:47;0.20;99.90
48936;DHT22;34745;52.276;10.528;2023-01-25T10:38:20;0.20;99.90
48936;DHT22;34745;52.276;10.528;2023-01-25T10:40:52;0.30;99.90
48936;DHT22;34745;52.276;10.528;2023-01-25T10:43:21;0.30;99.90
48936;DHT22;34745;52.276;10.528;2023-01-25T10:45:49;0.40;99.90
48936;DHT22;34745;52.276;10.528;2023-01-25T10:48:19;0.40;99.90
48936;DHT22;34745;52.276;10.528;2023-01-25T10:50:50;0.40;99.90
48936;DHT22;34745;52.276;10.528;2023-01-25T10:53:28;0.40;99.90
48936;DHT22;34745;52.276;10.528;2023-01-25T10:56:00;0.20;99.90
48936;DHT22;34745;52.276;10.528;2023-01-25T10:58:32;0.20;99.90
48936;DHT22;34745;52.276;10.528;2023-01-25T11:01:00;0.20;99.90
48936;DHT22;34745;52.276;10.528;2023-01-25T11:03:38;0.40;99.90
48936;DHT22;34745;52.276;10.528;2023-01-25T11:06:06;0.50;99.90
48936;DHT22;34745;52.276;10.528;2023-01-25T11:08:37;0.60;99.90
48936;DHT22;34745;52.276;10.528;2023-01-25T11:11:22;0.60;99.90
48936;DHT22;34745;52.276;10.528;2023-01-25T11:13:51;0.70;99.90
48936;DHT22;34745;52.276;10.528;2023-01-25T11:16:30;0.70;99.90
48936;DHT22;34745;52.276;10.528;2023-01-25T11:18:59;0.80;99.90
48936;DHT22;34745;52.276;10.528;2023-01-25T11:21:27;0.60;99.90
48936;DHT22;34745;52.276;10.528;2023-01-25T11:24:01;0.60;99.90
48936;DHT22;34745;52.276;10.528;2023-01-25T11:26:33;0.60;99.90
48936;DHT22;34745;52.276;10.528;2023-01-25T11:29:09;0.60;99.90
48936;DHT22;34745;52.276;10.528;2023-01-25T11:31:37;0.60;99.90
48936;DHT22;34745;52.276;10.528;2023-01-25T11:34:09;0.60;99.90
48936;DHT22;34745;52.276;10.528;2023-01-25T11:36:49;0.60;99.90
48936;DHT22;34745;52.276;10.528;2023-01-25T11:39:36;0.80;99.90
48936;DHT22;34745;52.276;10.528;2023-01-25T11:42:14;1.00;99.90
48936;DHT22;34745;52.276;10.528;2023-01-25T11:45:02;1.10;99.90
48936;DHT22;34745;52.276;10.528;2023-01-25T11:47:42;1.30;99.90
48936;DHT22;34745;52.276;10.528;2023-01-25T11:50:15;1.20;99.90
48936;DHT22;34745;52.276;10.528;2023-01-25T11:52:59;1.20;99.90
48936;DHT22;34745;52.276;10.528;2023-01-25T11:55:33;1.50;99.90
48936;DHT22;34745;52.276;10.528;2023-01-25T11:58:14;1.50;99.90
48936;DHT22;34745;52.276;10.528;2023-01-25T12:00:55;1.00;99.90
48936;DHT22;34745;52.276;10.528;2023-01-25T12:03:44;0.60;99.90
48936;DHT22;34745;52.276;10.528;2023-01-25T12:06:21;0.60;99.90
48936;DHT22;34745;52.276;10.528;2023-01-25T12:09:15;0.60;99.90
48936;DHT22;34745;52.276;10.528;2023-01-25T12:11:54;0.60;99.90
48936;DHT22;34745;52.276;10.528;2023-01-25T12:14:35;0.70;99.90
48936;DHT22;34745;52.276;10.528;2023-01-25T12:17:20;0.70;99.90
48936;DHT22;34745;52.276;10.528;2023-01-25T12:20:02;0.80;99.90
48936;DHT22;34745;52.276;10.528;2023-01-25T12:22:56;0.80;99.90
48936;DHT22;34745;52.276;10.528;2023-01-25T12:25:31;1.00;99.90
48936;DHT22;34745;52.276;10.528;2023-01-25T12:28:10;0.90;99.90
48936;DHT22;34745;52.276;10.528;2023-01-25T12:30:44;0.90;99.90
48936;DHT22;34745;52.276;10.528;2023-01-25T12:33:17;0.80;99.90
48936;DHT22;34745;52.276;10.528;2023-01-25T12:35:50;0.60;99.90
48936;DHT22;34745;52.276;10.528;2023-01-25T12:38:25;0.60;99.90
48936;DHT22;34745;52.276;10.528;2023-01-25T12:40:57;0.60;99.90
48936;DHT22;34745;52.276;10.528;2023-01-25T12:43:30;0.60;99.90
48936;DHT22;34745;52.276;10.528;2023-01-25T12:46:03;0.60;99.90
48936;DHT22;34745;52.276;10.528;2023-01-25T12:48:35;0.50;99.90
48936;DHT22;34745;52.276;10.528;2023-01-25T12:51:03;0.60;99.90
48936;DHT22;34745;52.276;10.528;2023-01-25T12:53:35;0.50;99.90
48936;DHT22;34745;52.276;10.528;2023-01-25T12:56:05;0.50;99.90
48936;DHT22;34745;52.276;10.528;2023-01-25T12:58:39;0.50;99.90
48936;DHT22;34745;52.276;10.528;2023-01-25T13:01:15;0.60;99.90
48936;DHT22;34745;52.276;10.528;2023-01-25T13:04:02;0.70;99.90
48936;DHT22;34745;52.276;10.528;2023-01-25T13:06:37;1.00;99.90
48936;DHT22;34745;52.276;10.528;2023-01-25T13:09:14;1.20;99.90
48936;DHT22;34745;52.276;10.528;2023-01-25T13:11:45;1.20;99.90
48936;DHT22;34745;52.276;10.528;2023-01-25T13:14:27;1.60;99.90
48936;DHT22;34745;52.276;10.528;2023-01-25T13:17:08;1.50;99.90
48936;DHT22;34745;52.276;10.528;2023-01-25T13:19:40;1.20;99.90
48936;DHT22;34745;52.276;10.528;2023-01-25T13:22:08;0.80;99.90
48936;DHT22;34745;52.276;10.528;2023-01-25T13:25:05;0.80;99.90
48936;DHT22;34745;52.276;10.528;2023-01-25T13:27:33;0.80;99.90
48936;DHT22;34745;52.276;10.528;2023-01-25T13:30:27;0.70;99.90
48936;DHT22;34745;52.276;10.528;2023-01-25T13:32:57;0.60;99.90
48936;DHT22;34745;52.276;10.528;2023-01-25T13:35:30;0.50;99.90
48936;DHT22;34745;52.276;10.528;2023-01-25T13:38:04;0.50;99.90
48936;DHT22;34745;52.276;10.528;2023-01-25T13:40:33;0.60;99.90
48936;DHT22;34745;52.276;10.528;2023-01-25T13:43:03;0.60;99.90
48936;DHT22;34745;52.276;10.528;2023-01-25T13:45:34;0.60;99.90
48936;DHT22;34745;52.276;10.528;2023-01-25T13:48:05;0.60;99.90
48936;DHT22;34745;52.276;10.528;2023-01-25T13:50:43;0.60;99.90
48936;DHT22;34745;52.276;10.528;2023-01-25T13:53:19;0.60;99.90
48936;DHT22;34745;52.276;10.528;2023-01-25T13:55:48;0.50;99.90
48936;DHT22;34745;52.276;10.528;2023-01-25T13:58:18;0.40;99.90
48936;DHT22;34745;52.276;10.528;2023-01-25T14:00:53;0.30;99.90
48936;DHT22;34745;52.276;10.528;2023-01-25T14:03:24;0.30;99.90
48936;DHT22;34745;52.276;10.528;2023-01-25T14:05:55;0.20;99.90
48936;DHT22;34745;52.276;10.528;2023-01-25T14:08:24;0.10;99.90
48936;DHT22;34745;52.276;10.528;2023-01-25T14:10:53;0.20;99.90
48936;DHT22;34745;52.276;10.528;2023-01-25T14:13:20;0.20;99.90
48936;DHT22;34745;52.276;10.528;2023-01-25T14:15:54;0.30;99.90
48936;DHT22;34745;52.276;10.528;2023-01-25T14:18:26;0.30;99.90
48936;DHT22;34745;52.276;10.528;2023-01-25T14:21:09;0.30;99.90
48936;DHT22;34745;52.276;10.528;2023-01-25T14:23:37;0.30;99.90
48936;DHT22;34745;52.276;10.528;2023-01-25T14:26:17;0.30;99.90
48936;DHT22;34745;52.276;10.528;2023-01-25T14:28:47;0.30;99.90
48936;DHT22;34745;52.276;10.528;2023-01-25T14:31:34;0.30;99.90
48936;DHT22;34745;52.276;10.528;2023-01-25T14:34:02;0.40;99.90
48936;DHT22;34745;52.276;10.528;2023-01-25T14:36:32;0.40;99.90
48936;DHT22;34745;52.276;10.528;2023-01-25T14:39:00;0.30;99.90
48936;DHT22;34745;52.276;10.528;2023-01-25T14:41:32;0.10;99.90
48936;DHT22;34745;52.276;10.528;2023-01-25T14:44:02;0.10;99.90
48936;DHT22;34745;52.276;10.528;2023-01-25T14:46:32;0.10;99.90
48936;DHT22;34745;52.276;10.528;2023-01-25T14:49:16;0.20;99.90
48936;DHT22;34745;52.276;10.528;2023-01-25T14:51:57;0.30;99.90
48936;DHT22;34745;52.276;10.528;2023-01-25T14:54:27;0.30;99.90
48936;DHT22;34745;52.276;10.528;2023-01-25T14:56:56;0.30;99.90
48936;DHT22;34745;52.276;10.528;2023-01-25T14:59:30;0.30;99.90
48936;DHT22;34745;52.276;10.528;2023-01-25T15:02:01;0.30;99.90
48936;DHT22;34745;52.276;10.528;2023-01-25T15:04:29;0.40;99.90
48936;DHT22;34745;52.276;10.528;2023-01-25T15:06:59;0.40;99.90
48936;DHT22;34745;52.276;10.528;2023-01-25T15:10:00;0.40;99.90
48936;DHT22;34745;52.276;10.528;2023-01-25T15:12:29;0.40;99.90
48936;DHT22;34745;52.276;10.528;2023-01-25T15:14:57;0.40;99.90
48936;DHT22;34745;52.276;10.528;2023-01-25T15:17:44;0.40;99.90
48936;DHT22;34745;52.276;10.528;2023-01-25T15:20:36;0.40;99.90
48936;DHT22;34745;52.276;10.528;2023-01-25T15:23:23;0.40;99.90
48936;DHT22;34745;52.276;10.528;2023-01-25T15:25:52;0.40;99.90
48936;DHT22;34745;52.276;10.528;2023-01-25T15:28:20;0.20;99.90
48936;DHT22;34745;52.276;10.528;2023-01-25T15:30:48;0.10;99.90
48936;DHT22;34745;52.276;10.528;2023-01-25T15:33:20;0.00;99.90
48936;DHT22;34745;52.276;10.528;2023-01-25T15:35:48;0.10;99.90
48936;DHT22;34745;52.276;10.528;2023-01-25T15:38:15;0.20;99.90
48936;DHT22;34745;52.276;10.528;2023-01-25T15:40:43;0.30;99.90
48936;DHT22;34745;52.276;10.528;2023-01-25T15:43:11;0.30;99.90
48936;DHT22;34745;52.276;10.528;2023-01-25T15:45:39;0.30;99.90
48936;DHT22;34745;52.276;10.528;2023-01-25T15:48:11;0.30;99.90
48936;DHT22;34745;52.276;10.528;2023-01-25T15:50:41;0.30;99.90
48936;DHT22;34745;52.276;10.528;2023-01-25T15:53:12;0.30;99.90
48936;DHT22;34745;52.276;10.528;2023-01-25T15:55:41;0.20;99.90
48936;DHT22;34745;52.276;10.528;2023-01-25T15:58:10;0.20;99.90
48936;DHT22;34745;52.276;10.528;2023-01-25T16:00:39;0.10;99.90